createdAt,value
2023-02-03T00:01:40.881Z,26.87
2023-02-03T00:04:12.437Z,22.53
2023-02-03T00:06:46.405Z,24.97
2023-02-03T00:09:21.085Z,23.97
2023-02-03T00:11:52.001Z,21.20
2023-02-03T00:14:22.965Z,20.50
2023-02-03T00:16:56.769Z,27.00
2023-02-03T00:19:27.673Z,22.10
2023-02-03T00:22:01.042Z,21.90
2023-02-03T00:24:45.421Z,22.07
2023-02-03T00:27:16.181Z,22.20
2023-02-03T00:29:46.916Z,21.97
2023-02-03T00:32:17.843Z,23.20
2023-02-03T00:34:51.696Z,21.50
2023-02-03T00:37:25.862Z,20.97
2023-02-03T00:39:56.746Z,21.03
2023-02-03T00:42:27.442Z,22.47
2023-02-03T00:44:58.168Z,19.27
2023-02-03T00:47:28.918Z,26.33
2023-02-03T00:49:59.672Z,20.83
2023-02-03T00:52:33.038Z,22.47
2023-02-03T00:55:03.783Z,23.30
2023-02-03T00:57:34.444Z,20.83
2023-02-03T01:00:05.225Z,23.23
2023-02-03T01:02:36.012Z,22.37
2023-02-03T01:05:07.169Z,24.53
2023-02-03T01:07:40.582Z,18.83
2023-02-03T01:10:12.456Z,20.00
2023-02-03T01:12:43.180Z,20.03
2023-02-03T01:15:14.059Z,19.77
2023-02-03T01:17:44.813Z,23.60
2023-02-03T01:20:17.083Z,24.10
2023-02-03T01:22:51.416Z,21.40
2023-02-03T01:25:26.875Z,20.20
2023-02-03T01:27:57.745Z,31.93
2023-02-03T01:30:29.006Z,23.10
2023-02-03T01:32:59.987Z,20.53
2023-02-03T01:35:31.096Z,20.33
2023-02-03T01:38:05.772Z,25.20
2023-02-03T01:40:36.755Z,21.20
2023-02-03T01:43:07.598Z,21.50
2023-02-03T01:45:38.364Z,20.10
2023-02-03T01:48:10.902Z,22.53
2023-02-03T01:50:41.846Z,23.97
2023-02-03T01:53:15.233Z,21.23
2023-02-03T01:55:49.946Z,21.23
2023-02-03T01:58:24.808Z,24.10
2023-02-03T02:00:57.617Z,21.40
2023-02-03T02:03:37.711Z,22.87
2023-02-03T02:06:11.666Z,22.10
2023-02-03T02:08:50.103Z,21.50
2023-02-03T02:11:22.480Z,22.47
2023-02-03T02:13:56.025Z,20.70
2023-02-03T02:16:38.552Z,21.13
2023-02-03T02:19:38.546Z,20.37
2023-02-03T02:22:19.876Z,27.50
2023-02-03T02:25:13.444Z,19.63
2023-02-03T02:28:13.509Z,23.00
2023-02-03T02:31:09.929Z,23.27
2023-02-03T02:33:46.859Z,18.13
2023-02-03T02:36:27.764Z,23.00
2023-02-03T02:39:11.118Z,19.53
2023-02-03T02:41:47.640Z,19.07
2023-02-03T02:44:24.584Z,19.67
2023-02-03T02:47:00.056Z,17.10
2023-02-03T02:49:36.032Z,21.03
2023-02-03T02:52:10.057Z,19.27
2023-02-03T02:54:44.877Z,17.30
2023-02-03T02:57:18.619Z,16.37
2023-02-03T02:59:50.096Z,18.60
2023-02-03T03:02:21.152Z,21.83
2023-02-03T03:05:28.131Z,19.83
2023-02-03T03:08:02.792Z,17.20
2023-02-03T03:10:35.489Z,17.83
2023-02-03T03:13:10.246Z,19.20
2023-02-03T03:15:46.314Z,16.93
2023-02-03T03:18:23.516Z,16.60
2023-02-03T03:21:06.667Z,16.90
2023-02-03T03:23:42.482Z,15.60
2023-02-03T03:26:17.592Z,16.17
2023-02-03T03:28:52.348Z,14.40
2023-02-03T03:31:26.113Z,15.80
2023-02-03T03:33:57.095Z,15.87
2023-02-03T03:36:32.967Z,14.40
2023-02-03T03:39:11.494Z,14.53
2023-02-03T03:42:00.248Z,17.53
2023-02-03T03:44:36.824Z,15.90
2023-02-03T03:47:20.962Z,12.70
2023-02-03T03:49:53.277Z,11.53
2023-02-03T03:52:31.697Z,15.97
2023-02-03T03:55:04.371Z,13.27
2023-02-03T03:57:39.706Z,13.17
2023-02-03T04:00:16.435Z,11.43
2023-02-03T04:02:51.706Z,9.83
2023-02-03T04:05:23.296Z,11.50
2023-02-03T04:07:56.640Z,12.13
2023-02-03T04:10:34.502Z,9.40
2023-02-03T04:13:06.529Z,10.80
2023-02-03T04:15:38.258Z,13.27
2023-02-03T04:18:09.429Z,10.13
2023-02-03T04:20:40.280Z,9.70
2023-02-03T04:23:16.843Z,11.40
2023-02-03T04:25:47.679Z,12.10
2023-02-03T04:28:18.622Z,10.77
2023-02-03T04:30:50.024Z,11.23
2023-02-03T04:33:23.071Z,11.80
2023-02-03T04:35:57.033Z,11.43
2023-02-03T04:38:30.361Z,11.47
2023-02-03T04:41:01.038Z,10.70
2023-02-03T04:43:31.736Z,10.20
2023-02-03T04:46:03.175Z,11.20
2023-02-03T04:48:33.933Z,10.03
2023-02-03T04:51:05.640Z,13.57
2023-02-03T04:53:39.412Z,10.00
2023-02-03T04:56:10.210Z,8.67
2023-02-03T04:58:43.007Z,10.73
2023-02-03T05:01:14.000Z,8.10
2023-02-03T05:03:46.179Z,11.93
2023-02-03T05:06:24.297Z,9.30
2023-02-03T05:08:59.678Z,8.33
2023-02-03T05:11:31.554Z,12.20
2023-02-03T05:14:02.571Z,9.23
2023-02-03T05:16:33.577Z,14.83
2023-02-03T05:19:05.274Z,10.90
2023-02-03T05:21:35.964Z,15.20
2023-02-03T05:24:10.111Z,8.57
2023-02-03T05:26:41.027Z,10.57
2023-02-03T05:29:13.588Z,10.57
2023-02-03T05:31:44.807Z,11.40
2023-02-03T05:34:15.595Z,9.53
2023-02-03T05:36:46.517Z,10.40
2023-02-03T05:39:21.855Z,7.60
2023-02-03T05:41:52.600Z,9.90
2023-02-03T05:44:23.825Z,9.83
2023-02-03T05:46:56.612Z,9.37
2023-02-03T05:49:27.931Z,7.27
2023-02-03T05:52:01.413Z,10.43
2023-02-03T05:54:34.804Z,8.30
2023-02-03T05:57:05.725Z,9.97
2023-02-03T05:59:36.500Z,10.77
2023-02-03T06:02:07.373Z,10.33
2023-02-03T06:04:38.215Z,9.67
2023-02-03T06:07:09.143Z,6.43
2023-02-03T06:09:42.503Z,11.53
2023-02-03T06:12:13.268Z,7.63
2023-02-03T06:14:53.008Z,10.47
2023-02-03T06:17:23.780Z,8.60
2023-02-03T06:19:54.701Z,8.50
2023-02-03T06:22:25.858Z,8.50
2023-02-03T06:24:59.224Z,7.73
2023-02-03T06:27:36.409Z,8.70
2023-02-03T06:30:08.026Z,8.70
2023-02-03T06:32:38.775Z,10.47
2023-02-03T06:35:10.635Z,8.83
2023-02-03T06:37:41.458Z,9.63
2023-02-03T06:40:16.050Z,8.20
2023-02-03T06:42:48.611Z,9.13
2023-02-03T06:45:19.967Z,9.23
2023-02-03T06:47:50.750Z,9.67
2023-02-03T06:50:21.815Z,10.43
2023-02-03T06:52:52.897Z,7.97
2023-02-03T06:55:26.262Z,11.20
2023-02-03T06:57:57.236Z,9.20
2023-02-03T07:00:55.411Z,10.40
2023-02-03T07:03:26.252Z,10.00
2023-02-03T07:05:59.889Z,8.60
2023-02-03T07:08:30.713Z,9.40
2023-02-03T07:11:04.269Z,10.43
2023-02-03T07:13:37.258Z,12.27
2023-02-03T07:16:09.437Z,11.47
2023-02-03T07:18:48.176Z,9.50
2023-02-03T07:21:20.609Z,9.83
2023-02-03T07:23:54.553Z,15.03
2023-02-03T07:26:28.098Z,11.90
2023-02-03T07:29:00.797Z,11.60
2023-02-03T07:31:32.722Z,10.77
2023-02-03T07:34:06.540Z,8.80
2023-02-03T07:36:37.258Z,12.10
2023-02-03T07:39:08.163Z,10.23
2023-02-03T07:41:41.574Z,12.03
2023-02-03T07:44:12.832Z,8.53
2023-02-03T07:46:45.080Z,10.73
2023-02-03T07:49:17.051Z,10.83
2023-02-03T07:51:47.798Z,8.13
2023-02-03T07:54:18.652Z,11.77
2023-02-03T07:56:55.095Z,9.70
2023-02-03T07:59:25.849Z,11.03
2023-02-03T08:01:57.151Z,13.07
2023-02-03T08:04:27.971Z,12.13
2023-02-03T08:06:58.828Z,10.13
2023-02-03T08:09:32.905Z,10.10
2023-02-03T08:12:06.669Z,13.33
2023-02-03T08:14:37.508Z,14.37
2023-02-03T08:17:08.281Z,14.33
2023-02-03T08:19:38.989Z,9.83
2023-02-03T08:22:16.031Z,9.17
2023-02-03T08:24:47.319Z,10.80
2023-02-03T08:27:32.908Z,12.07
2023-02-03T08:30:03.755Z,13.10
2023-02-03T08:32:36.542Z,10.17
2023-02-03T08:35:10.320Z,11.20
2023-02-03T08:37:41.277Z,11.57
2023-02-03T08:40:13.748Z,10.40
2023-02-03T08:42:55.230Z,14.47
2023-02-03T08:45:26.004Z,9.50
2023-02-03T08:47:56.786Z,14.23
2023-02-03T08:50:27.801Z,10.10
2023-02-03T08:52:58.679Z,11.90
2023-02-03T08:55:29.490Z,9.60
2023-02-03T08:58:02.818Z,9.40
2023-02-03T09:00:33.578Z,9.60
2023-02-03T09:03:04.359Z,15.23
2023-02-03T09:05:35.852Z,11.83
2023-02-03T09:08:06.817Z,10.30
2023-02-03T09:10:38.444Z,11.73
2023-02-03T09:13:11.734Z,15.70
2023-02-03T09:15:42.507Z,11.70
2023-02-03T09:18:13.185Z,11.50
2023-02-03T09:20:44.077Z,9.03
2023-02-03T09:23:14.992Z,9.93
2023-02-03T09:25:49.447Z,12.30
2023-02-03T09:28:23.342Z,13.47
2023-02-03T09:30:54.261Z,11.87
2023-02-03T09:33:25.140Z,9.70
2023-02-03T09:35:56.512Z,13.23
2023-02-03T09:38:33.806Z,11.93
2023-02-03T09:41:11.828Z,12.80
2023-02-03T09:43:53.874Z,14.63
2023-02-03T09:46:28.313Z,11.20
2023-02-03T09:49:07.573Z,11.90
2023-02-03T09:51:46.321Z,16.00
2023-02-03T09:54:22.027Z,16.60
2023-02-03T09:56:56.042Z,14.63
2023-02-03T09:59:31.497Z,15.40
2023-02-03T10:02:10.228Z,12.13
2023-02-03T10:04:44.610Z,13.73
2023-02-03T10:07:25.542Z,12.53
2023-02-03T10:10:03.102Z,11.73
2023-02-03T10:13:03.878Z,11.27
2023-02-03T10:16:14.061Z,16.37
2023-02-03T10:18:50.970Z,10.10
2023-02-03T10:21:34.885Z,16.80
2023-02-03T10:24:09.611Z,15.70
2023-02-03T10:26:42.306Z,12.37
2023-02-03T10:29:25.219Z,14.77
2023-02-03T10:32:00.507Z,16.30
2023-02-03T10:34:31.570Z,14.17
2023-02-03T10:37:07.204Z,12.70
2023-02-03T10:39:44.143Z,17.90
2023-02-03T10:42:49.477Z,13.00
2023-02-03T10:45:23.967Z,13.23
2023-02-03T10:47:57.478Z,12.10
2023-02-03T10:50:31.974Z,14.50
2023-02-03T10:53:28.025Z,12.90
2023-02-03T10:56:11.548Z,15.57
2023-02-03T10:58:52.515Z,15.97
2023-02-03T11:01:26.278Z,15.13
2023-02-03T11:04:04.019Z,14.73
2023-02-03T11:06:36.745Z,18.00
2023-02-03T11:09:47.697Z,13.63
2023-02-03T11:12:20.200Z,12.80
2023-02-03T11:15:10.920Z,9.87
2023-02-03T11:17:47.264Z,13.73
2023-02-03T11:20:19.881Z,13.40
2023-02-03T11:22:51.543Z,13.67
2023-02-03T11:25:27.066Z,10.80
2023-02-03T11:27:58.833Z,9.50
2023-02-03T11:30:32.785Z,11.77
2023-02-03T11:33:18.583Z,16.63
2023-02-03T11:35:59.110Z,12.00
2023-02-03T11:38:42.410Z,11.60
2023-02-03T11:41:22.454Z,9.37
2023-02-03T11:44:12.996Z,15.00
2023-02-03T11:46:48.341Z,12.03
2023-02-03T11:49:45.352Z,12.43
2023-02-03T11:52:55.463Z,11.23
2023-02-03T11:55:38.099Z,8.83
2023-02-03T11:58:40.357Z,9.43
2023-02-03T12:01:22.847Z,12.30
2023-02-03T12:04:27.852Z,11.87
2023-02-03T12:07:10.242Z,12.10
2023-02-03T12:09:53.301Z,12.13
2023-02-03T12:12:44.123Z,8.87
2023-02-03T12:15:32.121Z,10.03
2023-02-03T12:18:20.926Z,11.90
2023-02-03T12:21:10.370Z,7.93
2023-02-03T12:23:54.771Z,8.23
2023-02-03T12:26:28.801Z,9.10
2023-02-03T12:29:05.469Z,13.17
2023-02-03T12:31:42.452Z,9.87
2023-02-03T12:34:20.651Z,7.60
2023-02-03T12:37:00.012Z,13.63
2023-02-03T12:39:57.207Z,12.70
2023-02-03T12:42:38.705Z,13.20
2023-02-03T12:45:21.054Z,6.77
2023-02-03T12:47:57.135Z,8.60
2023-02-03T12:50:48.446Z,9.13
2023-02-03T12:53:29.285Z,10.33
2023-02-03T12:56:05.958Z,10.37
2023-02-03T12:58:40.986Z,8.80
2023-02-03T13:04:21.484Z,8.17
2023-02-03T13:07:00.129Z,8.83
2023-02-03T13:09:41.204Z,8.47
2023-02-03T13:12:16.477Z,7.40
2023-02-03T13:14:51.940Z,8.87
2023-02-03T13:17:32.339Z,8.90
2023-02-03T13:20:07.574Z,7.70
2023-02-03T13:22:38.515Z,7.13
2023-02-03T13:25:23.467Z,10.20
2023-02-03T13:28:06.121Z,11.70
2023-02-03T13:30:53.622Z,8.30
2023-02-03T13:33:55.505Z,10.73
2023-02-03T13:36:56.162Z,6.60
2023-02-03T13:39:43.182Z,11.80
2023-02-03T13:42:46.769Z,10.43
2023-02-03T13:45:28.258Z,10.43
2023-02-03T13:48:03.178Z,16.90
2023-02-03T13:50:36.501Z,15.03
2023-02-03T13:53:09.681Z,15.63
2023-02-03T13:55:43.834Z,12.30
2023-02-03T13:58:24.476Z,16.60
2023-02-03T14:01:34.380Z,12.87
2023-02-03T14:04:09.682Z,16.73
2023-02-03T14:07:03.511Z,15.77
2023-02-03T14:09:42.256Z,13.00
2023-02-03T14:12:37.917Z,18.20
2023-02-03T14:15:24.537Z,16.30
2023-02-03T14:18:04.098Z,15.97
2023-02-03T14:20:49.164Z,19.10
2023-02-03T14:23:27.787Z,12.67
2023-02-03T14:26:08.769Z,13.23
2023-02-03T14:28:45.417Z,14.30
2023-02-03T14:31:22.191Z,11.90
2023-02-03T14:34:19.549Z,15.20
2023-02-03T14:37:01.036Z,15.60
2023-02-03T14:40:06.906Z,16.97
2023-02-03T14:43:11.429Z,11.77
2023-02-03T14:46:10.776Z,12.57
2023-02-03T14:48:55.121Z,12.10
2023-02-03T14:51:38.211Z,16.50
2023-02-03T14:54:26.244Z,17.37
2023-02-03T14:57:20.422Z,16.20
2023-02-03T14:59:54.475Z,12.87
2023-02-03T15:02:27.722Z,20.40
2023-02-03T15:05:31.168Z,13.20
2023-02-03T15:08:03.430Z,10.13
2023-02-03T15:10:46.187Z,14.97
2023-02-03T15:13:27.774Z,21.50
2023-02-03T15:16:01.525Z,18.03
2023-02-03T15:18:36.048Z,18.80
2023-02-03T15:21:07.572Z,17.50
2023-02-03T15:23:47.947Z,18.53
2023-02-03T15:26:25.562Z,17.43
2023-02-03T15:29:02.364Z,17.63
2023-02-03T15:31:36.867Z,19.00
2023-02-03T15:34:20.334Z,14.87
2023-02-03T15:36:57.116Z,12.73
2023-02-03T15:39:47.200Z,17.80
2023-02-03T15:42:26.602Z,15.97
2023-02-03T15:45:02.326Z,17.63
2023-02-03T15:47:37.048Z,12.53
2023-02-03T15:50:11.706Z,17.10
2023-02-03T15:52:47.629Z,20.87
2023-02-03T15:55:29.478Z,14.67
2023-02-03T15:58:04.000Z,17.17
2023-02-03T16:00:39.275Z,17.00
2023-02-03T16:03:21.609Z,14.20
2023-02-03T16:05:52.896Z,18.87
2023-02-03T16:08:36.673Z,22.40
2023-02-03T16:11:27.217Z,15.10
2023-02-03T16:14:06.326Z,18.43
2023-02-03T16:16:41.531Z,16.23
2023-02-03T16:19:19.920Z,15.67
2023-02-03T16:21:57.528Z,20.03
2023-02-03T16:24:42.612Z,16.93
2023-02-03T16:27:23.963Z,19.70
2023-02-03T16:30:10.662Z,14.37
2023-02-03T16:32:58.778Z,17.67
2023-02-03T16:35:42.000Z,20.97
2023-02-03T16:38:31.348Z,21.03
2023-02-03T16:41:14.793Z,12.73
2023-02-03T16:43:58.079Z,15.17
2023-02-03T16:46:43.892Z,19.00
2023-02-03T16:49:30.502Z,14.57
2023-02-03T16:52:01.626Z,17.47
2023-02-03T16:54:34.584Z,16.10
2023-02-03T16:57:17.778Z,14.57
2023-02-03T17:02:38.817Z,15.17
2023-02-03T17:05:19.232Z,16.90
2023-02-03T17:08:03.489Z,21.27
2023-02-03T17:10:36.355Z,20.20
2023-02-03T17:13:07.973Z,15.57
2023-02-03T17:15:43.569Z,18.03
2023-02-03T17:18:17.580Z,11.30
2023-02-03T17:20:48.989Z,15.87
2023-02-03T17:23:33.585Z,27.03
2023-02-03T17:26:04.558Z,15.70
2023-02-03T17:28:36.255Z,20.77
2023-02-03T17:31:09.529Z,19.70
2023-02-03T17:33:45.360Z,14.70
2023-02-03T17:36:19.503Z,10.80
2023-02-03T17:58:50.349Z,30.30
2023-02-03T18:01:22.763Z,16.63
2023-02-03T18:03:57.675Z,21.33
2023-02-03T18:06:33.158Z,18.97
2023-02-03T18:09:04.486Z,15.53
2023-02-03T18:11:37.111Z,25.70
2023-02-03T18:14:22.973Z,17.63
2023-02-03T18:16:53.796Z,22.83
2023-02-03T18:19:24.538Z,13.10
2023-02-03T18:22:10.106Z,20.47
2023-02-03T18:24:44.853Z,16.60
2023-02-03T18:27:21.654Z,22.83
2023-02-03T18:29:57.960Z,18.73
2023-02-03T18:32:37.159Z,18.60
2023-02-03T18:35:18.145Z,21.30
2023-02-03T18:38:12.637Z,18.43
2023-02-03T18:41:04.526Z,16.40
2023-02-03T18:43:35.429Z,15.23
2023-02-03T18:46:17.938Z,20.00
2023-02-03T18:48:50.862Z,16.87
2023-02-03T18:51:23.773Z,16.63
2023-02-03T18:54:19.400Z,17.00
2023-02-03T18:56:57.554Z,16.20
2023-02-03T18:59:35.620Z,17.30
2023-02-03T19:02:07.236Z,21.73
2023-02-03T19:04:41.025Z,18.53
2023-02-03T19:07:15.551Z,23.53
2023-02-03T19:09:49.130Z,16.23
2023-02-03T19:12:19.921Z,21.70
2023-02-03T19:14:50.956Z,21.93
2023-02-03T19:17:31.256Z,18.87
2023-02-03T19:20:02.860Z,16.60
2023-02-03T19:22:54.472Z,16.67
2023-02-03T19:25:45.459Z,20.37
2023-02-03T19:28:20.286Z,20.10
2023-02-03T19:31:08.173Z,20.40
2023-02-03T19:33:40.010Z,18.27
2023-02-03T19:36:11.871Z,27.30
2023-02-03T19:38:42.689Z,16.07
2023-02-03T19:41:19.431Z,16.60
2023-02-03T19:43:52.105Z,22.97
2023-02-03T19:46:25.568Z,20.50
2023-02-03T19:48:58.340Z,19.80
2023-02-03T19:51:31.646Z,16.87
2023-02-03T19:54:14.869Z,18.50
2023-02-03T19:56:48.341Z,19.43
2023-02-03T19:59:39.990Z,20.53
2023-02-03T20:02:14.888Z,15.30
2023-02-03T20:04:46.264Z,19.50
2023-02-03T20:07:17.299Z,20.10
2023-02-03T20:09:52.940Z,19.90
2023-02-03T20:12:26.300Z,16.63
2023-02-03T20:15:14.619Z,20.73
2023-02-03T20:17:45.682Z,17.60
2023-02-03T20:20:16.468Z,20.90
2023-02-03T20:22:47.301Z,17.03
2023-02-03T20:25:19.195Z,15.73
2023-02-03T20:28:02.600Z,20.83
2023-02-03T20:30:33.753Z,18.07
2023-02-03T20:33:04.786Z,18.77
2023-02-03T20:35:35.698Z,21.90
2023-02-03T20:38:06.605Z,18.00
2023-02-03T20:40:37.725Z,16.20
2023-02-03T20:43:17.766Z,15.90
2023-02-03T20:45:49.827Z,16.50
2023-02-03T20:48:25.712Z,15.77
2023-02-03T20:51:14.122Z,20.17
2023-02-03T20:53:45.700Z,19.57
2023-02-03T20:56:18.342Z,18.37
2023-02-03T20:58:52.085Z,14.73
2023-02-03T21:01:24.617Z,15.43
2023-02-03T21:04:07.974Z,24.53
2023-02-03T21:06:39.559Z,12.80
2023-02-03T21:09:16.591Z,18.97
2023-02-03T21:11:47.736Z,13.90
2023-02-03T21:14:24.866Z,16.10
2023-02-03T21:16:56.542Z,14.83
2023-02-03T21:19:31.632Z,16.50
2023-02-03T21:22:06.263Z,11.40
2023-02-03T21:24:38.273Z,16.50
2023-02-03T21:27:28.658Z,17.07
2023-02-03T21:30:03.934Z,11.73
2023-02-03T21:32:39.623Z,19.63
2023-02-03T21:35:25.523Z,15.03
2023-02-03T21:38:18.576Z,18.10
2023-02-03T21:40:49.354Z,19.37
2023-02-03T21:43:26.437Z,18.23
2023-02-03T21:45:59.967Z,15.77
2023-02-03T21:48:33.317Z,16.73
2023-02-03T21:51:15.454Z,22.43
2023-02-03T21:53:59.949Z,18.77
2023-02-03T21:56:38.241Z,18.50
2023-02-03T21:59:18.108Z,18.33
2023-02-03T22:01:55.786Z,10.90
2023-02-03T22:04:29.781Z,18.83
2023-02-03T22:07:00.774Z,15.13
2023-02-03T22:09:31.518Z,18.90
2023-02-03T22:12:02.250Z,16.90
2023-02-03T22:14:35.278Z,14.40
2023-02-03T22:17:08.821Z,14.97
2023-02-03T22:19:58.620Z,21.03
2023-02-03T22:22:33.412Z,13.20
2023-02-03T22:25:23.213Z,21.17
2023-02-03T22:27:53.964Z,15.43
2023-02-03T22:30:33.608Z,18.83
2023-02-03T22:33:07.692Z,15.90
2023-02-03T22:35:38.722Z,16.13
2023-02-03T22:38:09.613Z,15.27
2023-02-03T22:40:40.403Z,15.47
2023-02-03T22:43:12.506Z,18.07
2023-02-03T22:45:43.391Z,17.00
2023-02-03T22:48:16.758Z,18.67
2023-02-03T22:50:47.515Z,18.87
2023-02-03T22:53:18.459Z,19.70
2023-02-03T22:55:49.216Z,20.63
2023-02-03T22:58:20.194Z,17.40
2023-02-03T23:00:51.054Z,14.93
2023-02-03T23:03:24.666Z,14.00
2023-02-03T23:05:56.620Z,18.73
2023-02-03T23:08:27.755Z,25.07
2023-02-03T23:10:58.990Z,16.70
2023-02-03T23:13:31.040Z,20.10
2023-02-03T23:16:01.860Z,17.23
2023-02-03T23:18:35.303Z,16.63
2023-02-03T23:21:06.222Z,20.97
2023-02-03T23:23:37.047Z,16.03
2023-02-03T23:26:08.092Z,23.80
2023-02-03T23:28:38.894Z,23.83
2023-02-03T23:31:15.153Z,33.73
2023-02-03T23:34:11.159Z,25.80
2023-02-03T23:36:39.503Z,15.97
2023-02-03T23:39:10.431Z,18.93
2023-02-03T23:41:41.133Z,18.80
2023-02-03T23:44:14.926Z,19.87
2023-02-03T23:46:45.717Z,24.33
2023-02-03T23:49:21.101Z,21.73
2023-02-03T23:51:52.442Z,17.00
2023-02-03T23:54:23.516Z,22.97
2023-02-03T23:56:55.713Z,17.03
2023-02-03T23:59:27.298Z,16.30
